createdAt,value
2023-03-21T00:00:11.395Z,101233.50
2023-03-21T00:02:34.984Z,101238.75
2023-03-21T00:05:09.470Z,101234.72
2023-03-21T00:07:39.040Z,101244.75
2023-03-21T00:10:14.393Z,101234.59
2023-03-21T00:12:39.316Z,101235.53
2023-03-21T00:15:05.781Z,101238.31
2023-03-21T00:17:32.594Z,101233.50
2023-03-21T00:19:56.246Z,101230.81
2023-03-21T00:22:21.384Z,101233.19
2023-03-21T00:24:45.539Z,101225.53
2023-03-21T00:27:42.654Z,101227.91
2023-03-21T00:29:52.960Z,101219.19
2023-03-21T00:32:16.771Z,101226.28
2023-03-21T00:34:57.661Z,101218.09
2023-03-21T00:37:28.376Z,101210.44
2023-03-21T00:39:52.089Z,101213.44
2023-03-21T00:42:15.964Z,101217.28
2023-03-21T00:44:40.318Z,101210.28
2023-03-21T00:47:07.856Z,101207.19
2023-03-21T00:49:33.741Z,101205.94
2023-03-21T00:52:08.653Z,101207.50
2023-03-21T00:54:40.353Z,101202.56
2023-03-21T00:57:06.122Z,101209.03
2023-03-21T00:59:30.060Z,101216.75
2023-03-21T01:01:54.015Z,101201.47
2023-03-21T01:04:18.173Z,101206.09
2023-03-21T01:06:43.174Z,101209.66
2023-03-21T01:09:08.071Z,101205.69
2023-03-21T01:11:34.777Z,101199.25
2023-03-21T01:14:14.822Z,101203.69
2023-03-21T01:16:43.200Z,101194.97
2023-03-21T01:19:18.271Z,101193.44
2023-03-21T01:21:48.222Z,101199.06
2023-03-21T01:24:12.325Z,101198.19
2023-03-21T01:26:37.779Z,101197.34
2023-03-21T01:29:01.627Z,101197.16
2023-03-21T01:31:25.521Z,101196.81
2023-03-21T01:33:49.183Z,101203.47
2023-03-21T01:36:21.076Z,101192.44
2023-03-21T01:38:47.703Z,101203.34
2023-03-21T01:41:22.086Z,101206.28
2023-03-21T01:43:50.074Z,101212.16
2023-03-21T01:46:47.728Z,101211.28
2023-03-21T01:49:40.312Z,101205.50
2023-03-21T01:52:26.494Z,101202.84
2023-03-21T01:54:55.857Z,101181.88
2023-03-21T01:57:27.831Z,101195.88
2023-03-21T01:59:59.103Z,101186.09
2023-03-21T02:02:58.149Z,101191.03
2023-03-21T02:05:55.318Z,101193.19
2023-03-21T02:08:25.899Z,101188.53
2023-03-21T02:11:02.356Z,101190.59
2023-03-21T02:13:36.494Z,101195.44
2023-03-21T02:16:15.581Z,101189.50
2023-03-21T02:18:52.553Z,101190.25
2023-03-21T02:21:56.385Z,101190.50
2023-03-21T02:25:06.155Z,101190.88
2023-03-21T02:27:40.364Z,101187.44
2023-03-21T02:30:51.177Z,101182.72
2023-03-21T02:34:15.524Z,101181.25
2023-03-21T02:36:59.389Z,101188.78
2023-03-21T02:39:30.690Z,101184.06
2023-03-21T02:42:02.670Z,101187.66
2023-03-21T02:44:38.314Z,101187.38
2023-03-21T02:47:07.773Z,101185.78
2023-03-21T02:49:43.276Z,101190.94
2023-03-21T02:52:18.726Z,101185.56
2023-03-21T02:54:49.142Z,101179.44
2023-03-21T02:57:19.496Z,101190.47
2023-03-21T02:59:54.300Z,101193.69
2023-03-21T03:02:30.964Z,101194.84
2023-03-21T03:04:55.584Z,101195.72
2023-03-21T03:07:37.636Z,101191.31
2023-03-21T03:10:16.267Z,101190.56
2023-03-21T03:12:48.650Z,101191.66
2023-03-21T03:15:28.350Z,101195.69
2023-03-21T03:17:59.122Z,101194.25
2023-03-21T03:20:37.056Z,101188.53
2023-03-21T03:23:17.961Z,101191.09
2023-03-21T03:25:46.273Z,101190.72
2023-03-21T03:28:14.650Z,101193.69
2023-03-21T03:30:46.522Z,101189.94
2023-03-21T03:33:18.069Z,101196.25
2023-03-21T03:35:44.837Z,101191.53
2023-03-21T03:38:14.346Z,101194.41
2023-03-21T03:40:42.592Z,101196.47
2023-03-21T03:43:24.454Z,101197.84
2023-03-21T03:45:55.230Z,101202.34
2023-03-21T03:48:26.444Z,101198.59
2023-03-21T03:51:01.477Z,101211.66
2023-03-21T03:53:44.663Z,101201.72
2023-03-21T03:56:11.771Z,101202.13
2023-03-21T03:58:45.313Z,101206.56
2023-03-21T04:01:12.582Z,101197.00
2023-03-21T04:03:48.442Z,101194.75
2023-03-21T04:06:13.723Z,101194.00
2023-03-21T04:08:38.784Z,101192.81
2023-03-21T04:11:04.985Z,101193.38
2023-03-21T04:13:34.397Z,101195.94
2023-03-21T04:16:01.690Z,101195.69
2023-03-21T04:18:25.524Z,101197.09
2023-03-21T04:20:51.285Z,101186.47
2023-03-21T04:23:16.337Z,101191.66
2023-03-21T04:25:53.922Z,101192.69
2023-03-21T04:28:22.560Z,101188.22
2023-03-21T04:31:03.575Z,101192.38
2023-03-21T04:33:40.543Z,101189.94
2023-03-21T04:36:06.662Z,101193.59
2023-03-21T04:38:33.897Z,101192.72
2023-03-21T04:41:00.128Z,101192.28
2023-03-21T04:43:28.512Z,101190.88
2023-03-21T04:45:53.777Z,101194.06
2023-03-21T04:48:19.560Z,101196.31
2023-03-21T04:50:43.380Z,101196.38
2023-03-21T04:53:07.021Z,101191.34
2023-03-21T04:55:32.524Z,101196.75
2023-03-21T04:57:56.444Z,101193.28
2023-03-21T05:00:23.125Z,101190.00
2023-03-21T05:02:47.348Z,101199.34
2023-03-21T05:05:12.244Z,101200.81
2023-03-21T05:07:35.852Z,101199.00
2023-03-21T05:10:01.849Z,101191.94
2023-03-21T05:12:27.038Z,101189.38
2023-03-21T05:14:51.214Z,101194.06
2023-03-21T05:17:23.322Z,101194.72
2023-03-21T05:19:48.018Z,101186.69
2023-03-21T05:22:14.304Z,101192.38
2023-03-21T05:24:39.433Z,101187.34
2023-03-21T05:27:06.396Z,101193.44
2023-03-21T05:29:37.319Z,101190.88
2023-03-21T05:32:03.691Z,101197.88
2023-03-21T05:34:28.956Z,101183.44
2023-03-21T05:36:53.050Z,101190.25
2023-03-21T05:39:18.122Z,101186.16
2023-03-21T05:41:53.730Z,101180.19
2023-03-21T05:44:17.509Z,101184.03
2023-03-21T05:46:41.306Z,101179.53
2023-03-21T05:49:05.678Z,101184.03
2023-03-21T05:51:31.127Z,101185.84
2023-03-21T05:53:54.837Z,101183.56
2023-03-21T05:56:18.570Z,101183.78
2023-03-21T05:58:52.809Z,101196.97
2023-03-21T06:01:18.897Z,101192.13
2023-03-21T06:03:50.533Z,101194.06
2023-03-21T06:06:18.593Z,101188.97
2023-03-21T06:08:54.453Z,101201.59
2023-03-21T06:11:26.273Z,101193.03
2023-03-21T06:14:05.657Z,101198.47
2023-03-21T06:16:29.953Z,101199.22
2023-03-21T06:18:53.621Z,101202.41
2023-03-21T06:21:32.058Z,101207.59
2023-03-21T06:23:57.241Z,101201.59
2023-03-21T06:26:23.084Z,101200.84
2023-03-21T06:28:48.495Z,101204.19
2023-03-21T06:31:12.427Z,101207.69
2023-03-21T06:33:36.210Z,101203.91
2023-03-21T06:36:01.053Z,101201.31
2023-03-21T06:38:26.561Z,101212.31
2023-03-21T06:40:52.584Z,101207.94
2023-03-21T06:43:18.076Z,101200.22
2023-03-21T06:45:42.666Z,101206.31
2023-03-21T06:48:09.451Z,101193.38
2023-03-21T06:50:50.437Z,101213.03
2023-03-21T06:53:15.379Z,101204.63
2023-03-21T06:56:06.809Z,101211.31
2023-03-21T06:58:32.073Z,101208.16
2023-03-21T07:00:55.938Z,101211.91
2023-03-21T07:03:20.066Z,101215.38
2023-03-21T07:05:44.691Z,101218.16
2023-03-21T07:08:10.629Z,101212.53
2023-03-21T07:10:34.477Z,101211.16
2023-03-21T07:13:04.194Z,101216.50
2023-03-21T07:15:34.627Z,101214.97
2023-03-21T07:17:58.367Z,101220.31
2023-03-21T07:20:22.255Z,101221.09
2023-03-21T07:22:45.985Z,101218.22
2023-03-21T07:25:11.663Z,101221.66
2023-03-21T07:27:37.740Z,101225.56
2023-03-21T07:30:04.320Z,101228.47
2023-03-21T07:32:30.092Z,101220.97
2023-03-21T07:34:54.064Z,101221.47
2023-03-21T07:37:17.806Z,101224.59
2023-03-21T07:39:41.683Z,101222.00
2023-03-21T07:42:05.802Z,101215.56
2023-03-21T07:44:35.201Z,101221.03
2023-03-21T07:47:01.550Z,101221.81
2023-03-21T07:49:26.717Z,101220.19
2023-03-21T07:51:50.443Z,101225.13
2023-03-21T07:54:14.159Z,101216.19
2023-03-21T07:56:37.969Z,101220.94
2023-03-21T07:59:01.677Z,101221.66
2023-03-21T08:01:25.653Z,101215.41
2023-03-21T08:03:51.479Z,101218.81
2023-03-21T08:06:15.726Z,101218.06
2023-03-21T08:08:39.448Z,101210.50
2023-03-21T08:11:03.309Z,101220.94
2023-03-21T08:13:27.800Z,101211.59
2023-03-21T08:15:51.489Z,101213.59
2023-03-21T08:18:15.348Z,101207.81
2023-03-21T08:20:41.319Z,101210.91
2023-03-21T08:23:05.281Z,101215.78
2023-03-21T08:25:29.096Z,101218.50
2023-03-21T08:27:53.521Z,101222.06
2023-03-21T08:30:20.960Z,101218.72
2023-03-21T08:32:45.145Z,101223.28
2023-03-21T08:35:11.521Z,101214.25
2023-03-21T08:37:36.705Z,101216.66
2023-03-21T08:40:00.454Z,101221.03
2023-03-21T08:42:24.776Z,101215.72
2023-03-21T08:44:48.452Z,101217.41
2023-03-21T08:47:12.730Z,101221.38
2023-03-21T08:49:37.121Z,101213.31
2023-03-21T08:52:00.833Z,101224.81
2023-03-21T08:54:25.958Z,101220.53
2023-03-21T08:56:49.857Z,101214.88
2023-03-21T08:59:13.587Z,101213.31
2023-03-21T09:01:37.732Z,101210.75
2023-03-21T09:04:01.462Z,101219.31
2023-03-21T09:06:27.124Z,101227.91
2023-03-21T09:08:52.890Z,101221.03
2023-03-21T09:11:18.011Z,101218.50
2023-03-21T09:13:41.790Z,101218.50
2023-03-21T09:16:05.985Z,101218.81
2023-03-21T09:18:44.739Z,101212.50
2023-03-21T09:21:12.895Z,101216.09
2023-03-21T09:23:37.871Z,101213.78
2023-03-21T09:26:01.616Z,101216.69
2023-03-21T09:28:27.647Z,101212.34
2023-03-21T09:30:51.411Z,101217.53
2023-03-21T09:33:25.551Z,101209.75
2023-03-21T09:35:51.752Z,101218.59
2023-03-21T09:38:16.039Z,101210.34
2023-03-21T09:41:01.093Z,101214.03
2023-03-21T09:43:47.759Z,101215.00
2023-03-21T09:46:21.382Z,101213.06
2023-03-21T09:48:57.420Z,101212.66
2023-03-21T09:51:24.389Z,101211.41
2023-03-21T09:53:51.938Z,101205.25
2023-03-21T09:56:17.193Z,101203.41
2023-03-21T09:58:47.041Z,101204.25
2023-03-21T10:01:22.410Z,101202.41
2023-03-21T10:03:47.588Z,101199.63
2023-03-21T10:06:15.384Z,101193.03
2023-03-21T10:08:42.126Z,101197.00
2023-03-21T10:11:13.302Z,101188.94
2023-03-21T10:13:43.907Z,101194.81
2023-03-21T10:16:16.809Z,101191.91
2023-03-21T10:18:42.570Z,101184.28
2023-03-21T10:21:07.632Z,101182.56
2023-03-21T10:23:32.008Z,101182.59
2023-03-21T10:25:58.856Z,101184.47
2023-03-21T10:28:27.600Z,101175.38
2023-03-21T10:30:55.194Z,101177.69
2023-03-21T10:33:22.609Z,101175.13
2023-03-21T10:35:51.636Z,101168.28
2023-03-21T10:38:19.613Z,101168.63
2023-03-21T10:40:43.370Z,101181.13
2023-03-21T10:43:34.034Z,101179.50
2023-03-21T10:45:59.499Z,101173.38
2023-03-21T10:48:25.121Z,101173.03
2023-03-21T10:50:51.772Z,101165.22
2023-03-21T10:53:20.973Z,101177.56
2023-03-21T10:55:46.697Z,101171.81
2023-03-21T10:58:19.038Z,101172.31
2023-03-21T11:00:45.273Z,101173.16
2023-03-21T11:03:23.841Z,101159.06
2023-03-21T11:05:48.236Z,101164.91
2023-03-21T11:08:17.056Z,101164.09
2023-03-21T11:10:54.597Z,101159.28
2023-03-21T11:13:21.958Z,101162.63
2023-03-21T11:15:54.488Z,101156.97
2023-03-21T11:18:22.126Z,101160.03
2023-03-21T11:20:53.505Z,101162.22
2023-03-21T11:23:20.382Z,101147.28
2023-03-21T11:25:44.919Z,101152.44
2023-03-21T11:28:15.023Z,101149.50
2023-03-21T11:30:38.919Z,101148.53
2023-03-21T11:33:06.261Z,101144.34
2023-03-21T11:35:37.062Z,101133.81
2023-03-21T11:38:01.195Z,101138.28
2023-03-21T11:40:27.812Z,101129.06
2023-03-21T11:42:53.475Z,101134.72
2023-03-21T11:45:20.919Z,101125.09
2023-03-21T11:47:45.934Z,101126.84
2023-03-21T11:50:24.839Z,101121.63
2023-03-21T11:53:07.392Z,101119.22
2023-03-21T11:55:43.025Z,101114.34
2023-03-21T11:58:24.647Z,101114.31
2023-03-21T12:00:57.325Z,101112.31
2023-03-21T12:03:49.181Z,101107.88
2023-03-21T12:06:22.522Z,101102.63
2023-03-21T12:08:59.124Z,101103.84
2023-03-21T12:11:35.164Z,101109.38
2023-03-21T12:14:07.336Z,101105.72
2023-03-21T12:16:48.245Z,101096.50
2023-03-21T12:19:30.739Z,101093.16
2023-03-21T12:22:04.807Z,101095.94
2023-03-21T12:24:39.056Z,101094.13
2023-03-21T12:27:12.550Z,101095.47
2023-03-21T12:29:54.559Z,101077.94
2023-03-21T12:32:35.568Z,101079.78
2023-03-21T12:35:32.994Z,101072.47
2023-03-21T12:38:08.169Z,101067.50
2023-03-21T12:40:52.319Z,101060.63
2023-03-21T12:43:32.686Z,101055.97
2023-03-21T12:46:01.511Z,101055.28
2023-03-21T12:48:37.257Z,101055.66
2023-03-21T12:51:04.115Z,101051.13
2023-03-21T12:53:39.146Z,101047.63
2023-03-21T12:56:10.489Z,101044.50
2023-03-21T12:58:44.749Z,101035.09
2023-03-21T13:01:12.150Z,101041.53
2023-03-21T13:03:43.938Z,101035.56
2023-03-21T13:06:11.186Z,101035.72
2023-03-21T13:08:38.861Z,101030.59
2023-03-21T13:11:05.369Z,101030.03
2023-03-21T13:13:35.498Z,101024.03
2023-03-21T13:16:11.078Z,101022.34
2023-03-21T13:18:45.872Z,101020.59
2023-03-21T13:21:17.838Z,101015.38
2023-03-21T13:23:41.773Z,101008.41
2023-03-21T13:26:12.520Z,101014.53
2023-03-21T13:28:39.951Z,101010.69
2023-03-21T13:31:20.775Z,100998.31
2023-03-21T13:33:47.292Z,101003.25
2023-03-21T13:36:15.266Z,101003.47
2023-03-21T13:38:40.251Z,101001.28
2023-03-21T13:41:11.060Z,100994.72
2023-03-21T13:43:43.419Z,100990.31
2023-03-21T13:46:10.164Z,100995.72
2023-03-21T13:48:49.419Z,100989.59
2023-03-21T13:51:39.849Z,100989.75
2023-03-21T13:54:06.635Z,100984.50
2023-03-21T13:56:51.049Z,100993.63
2023-03-21T13:59:19.848Z,100981.28
2023-03-21T14:01:59.843Z,100984.50
2023-03-21T14:04:36.932Z,100987.47
2023-03-21T14:07:13.015Z,100995.47
2023-03-21T14:09:40.825Z,100984.78
2023-03-21T14:12:13.491Z,100978.50
2023-03-21T14:14:43.689Z,100985.84
2023-03-21T14:17:14.362Z,100977.56
2023-03-21T14:19:38.803Z,100972.25
2023-03-21T14:22:05.019Z,100975.13
2023-03-21T14:24:28.857Z,100972.00
2023-03-21T14:26:55.641Z,100965.16
2023-03-21T14:29:29.493Z,100974.44
2023-03-21T14:31:56.645Z,100962.50
2023-03-21T14:34:21.635Z,100970.56
2023-03-21T14:36:56.853Z,100962.50
2023-03-21T14:39:24.777Z,100958.50
2023-03-21T14:41:51.109Z,100961.31
2023-03-21T14:44:28.910Z,100959.06
2023-03-21T14:46:54.933Z,100948.38
2023-03-21T14:49:29.714Z,100942.84
2023-03-21T14:51:57.794Z,100941.59
2023-03-21T14:54:22.133Z,100941.28
2023-03-21T14:56:49.010Z,100938.63
2023-03-21T14:59:16.581Z,100937.19
2023-03-21T15:01:42.551Z,100936.63
2023-03-21T15:04:07.929Z,100930.78
2023-03-21T15:06:32.409Z,100930.81
2023-03-21T15:08:57.577Z,100926.94
2023-03-21T15:11:30.783Z,100927.50
2023-03-21T15:13:57.009Z,100928.38
2023-03-21T15:16:22.149Z,100918.44
2023-03-21T15:18:47.617Z,100911.19
2023-03-21T15:21:17.375Z,100914.03
2023-03-21T15:23:44.771Z,100916.41
2023-03-21T15:26:08.940Z,100913.44
2023-03-21T15:28:34.716Z,100910.63
2023-03-21T15:30:58.711Z,100909.88
2023-03-21T15:33:25.150Z,100915.00
2023-03-21T15:35:55.750Z,100913.59
2023-03-21T15:38:30.105Z,100909.34
2023-03-21T15:41:17.775Z,100907.63
2023-03-21T15:43:42.339Z,100901.47
2023-03-21T15:46:16.158Z,100901.63
2023-03-21T15:48:39.955Z,100902.06
2023-03-21T15:51:08.022Z,100901.94
2023-03-21T15:53:36.207Z,100898.94
2023-03-21T15:56:02.069Z,100891.25
2023-03-21T15:58:28.796Z,100892.13
2023-03-21T16:00:55.665Z,100889.72
2023-03-21T16:03:25.297Z,100886.69
2023-03-21T16:06:10.145Z,100887.56
2023-03-21T16:08:37.437Z,100879.00
2023-03-21T16:11:10.082Z,100879.97
2023-03-21T16:13:33.902Z,100878.84
2023-03-21T16:15:57.590Z,100874.78
2023-03-21T16:18:21.354Z,100876.19
2023-03-21T16:20:46.821Z,100868.19
2023-03-21T16:23:13.148Z,100876.31
2023-03-21T16:25:36.844Z,100867.06
2023-03-21T16:28:00.881Z,100872.19
2023-03-21T16:30:25.129Z,100872.97
2023-03-21T16:32:49.939Z,100874.78
2023-03-21T16:35:13.936Z,100871.41
2023-03-21T16:37:37.709Z,100877.22
2023-03-21T16:40:05.821Z,100874.38
2023-03-21T16:42:29.596Z,100871.41
2023-03-21T16:44:53.411Z,100869.53
2023-03-21T16:47:19.648Z,100871.69
2023-03-21T16:49:43.338Z,100870.97
2023-03-21T16:52:07.398Z,100878.38
2023-03-21T16:54:31.053Z,100869.97
2023-03-21T16:56:59.150Z,100870.69
2023-03-21T16:59:23.626Z,100872.69
2023-03-21T17:01:48.586Z,100875.22
2023-03-21T17:04:12.601Z,100877.38
2023-03-21T17:06:45.604Z,100872.13
2023-03-21T17:09:11.808Z,100872.81
2023-03-21T17:11:37.500Z,100868.13
2023-03-21T17:14:03.046Z,100861.47
2023-03-21T17:16:27.634Z,100863.88
2023-03-21T17:18:52.456Z,100856.06
2023-03-21T17:21:19.125Z,100848.69
2023-03-21T17:23:43.040Z,100863.16
2023-03-21T17:26:09.740Z,100850.66
2023-03-21T17:28:33.534Z,100849.09
2023-03-21T17:30:58.890Z,100850.09
2023-03-21T17:33:22.626Z,100852.06
2023-03-21T17:35:46.397Z,100858.78
2023-03-21T17:38:17.294Z,100851.78
2023-03-21T17:40:41.407Z,100852.38
2023-03-21T17:43:07.572Z,100845.69
2023-03-21T17:45:31.413Z,100846.84
2023-03-21T17:47:56.523Z,100854.38
2023-03-21T17:50:23.560Z,100846.13
2023-03-21T17:52:49.665Z,100846.25
2023-03-21T17:55:16.213Z,100850.53
2023-03-21T17:57:39.973Z,100839.31
2023-03-21T18:00:11.739Z,100847.84
2023-03-21T18:02:35.542Z,100843.84
2023-03-21T18:05:00.610Z,100843.69
2023-03-21T18:07:54.410Z,100847.13
2023-03-21T18:10:10.853Z,100842.13
2023-03-21T18:12:34.467Z,100841.72
2023-03-21T18:14:59.083Z,100842.41
2023-03-21T18:17:22.828Z,100844.69
2023-03-21T18:19:47.782Z,100841.56
2023-03-21T18:22:12.931Z,100841.00
2023-03-21T18:24:37.210Z,100840.13
2023-03-21T18:27:01.019Z,100839.59
2023-03-21T18:32:09.514Z,100846.81
2023-03-21T18:34:33.360Z,100843.69
2023-03-21T18:36:57.138Z,100853.78
2023-03-21T18:39:22.665Z,100848.69
2023-03-21T18:41:46.791Z,100851.09
2023-03-21T18:44:19.761Z,100846.13
2023-03-21T18:46:48.253Z,100846.56
2023-03-21T18:49:52.097Z,100849.25
2023-03-21T18:51:55.785Z,100844.69
2023-03-21T18:54:19.449Z,100840.56
2023-03-21T18:57:31.718Z,100845.69
2023-03-21T18:59:29.351Z,100846.56
2023-03-21T19:01:53.211Z,100848.13
2023-03-21T19:04:25.506Z,100848.69
2023-03-21T19:06:53.201Z,100839.03
2023-03-21T19:09:18.129Z,100846.56
2023-03-21T19:11:43.940Z,100849.53
2023-03-21T19:14:07.657Z,100848.81
2023-03-21T19:16:45.371Z,100848.94
2023-03-21T19:19:18.518Z,100838.72
2023-03-21T19:21:42.253Z,100845.28
2023-03-21T19:24:26.552Z,100837.31
2023-03-21T19:26:52.117Z,100847.44
2023-03-21T19:29:16.624Z,100851.31
2023-03-21T19:31:40.431Z,100844.38
2023-03-21T19:34:04.698Z,100851.50
2023-03-21T19:36:28.706Z,100840.34
2023-03-21T19:38:52.895Z,100838.06
2023-03-21T19:41:16.757Z,100849.25
2023-03-21T19:43:52.847Z,100838.06
2023-03-21T19:46:20.061Z,100841.19
2023-03-21T19:48:44.891Z,100830.59
2023-03-21T19:51:28.645Z,100838.56
2023-03-21T19:53:53.935Z,100842.22
2023-03-21T19:56:22.358Z,100843.03
2023-03-21T19:58:48.956Z,100843.47
2023-03-21T20:01:12.855Z,100842.63
2023-03-21T20:03:37.835Z,100846.00
2023-03-21T20:06:07.879Z,100845.75
2023-03-21T20:08:43.273Z,100838.50
2023-03-21T20:11:15.752Z,100838.06
2023-03-21T20:13:40.678Z,100842.72
2023-03-21T20:16:07.316Z,100840.16
2023-03-21T20:18:34.930Z,100849.38
2023-03-21T20:20:58.638Z,100846.97
2023-03-21T20:23:23.400Z,100847.59
2023-03-21T20:25:48.278Z,100846.94
2023-03-21T20:28:17.265Z,100850.63
2023-03-21T20:30:50.544Z,100841.72
2023-03-21T20:33:15.778Z,100846.41
2023-03-21T20:36:22.849Z,100854.47
2023-03-21T20:38:25.060Z,100849.09
2023-03-21T20:40:49.037Z,100846.22
2023-03-21T20:43:54.388Z,100847.59
2023-03-21T20:46:02.950Z,100849.97
2023-03-21T20:48:29.888Z,100844.75
2023-03-21T20:50:57.862Z,100839.88
2023-03-21T20:53:25.353Z,100840.91
2023-03-21T20:55:49.814Z,100840.69
2023-03-21T20:58:36.794Z,100850.13
2023-03-21T21:01:03.837Z,100831.78
2023-03-21T21:03:29.030Z,100834.34
2023-03-21T21:05:53.793Z,100822.66
2023-03-21T21:08:19.358Z,100812.84
2023-03-21T21:11:14.949Z,100814.22
2023-03-21T21:13:29.033Z,100811.75
2023-03-21T21:15:54.341Z,100811.75
2023-03-21T21:18:18.473Z,100813.22
2023-03-21T21:20:43.670Z,100810.97
2023-03-21T21:23:09.513Z,100802.56
2023-03-21T21:25:34.866Z,100813.50
2023-03-21T21:27:58.735Z,100816.63
2023-03-21T21:30:22.999Z,100807.66
2023-03-21T21:32:46.720Z,100803.22
2023-03-21T21:35:11.173Z,100794.75
2023-03-21T21:37:36.300Z,100792.09
2023-03-21T21:40:00.105Z,100803.25
2023-03-21T21:42:23.853Z,100793.06
2023-03-21T21:44:47.567Z,100784.56
2023-03-21T21:47:11.398Z,100804.66
2023-03-21T21:49:35.368Z,100795.75
2023-03-21T21:52:00.007Z,100798.88
2023-03-21T21:54:26.073Z,100791.63
2023-03-21T21:56:54.151Z,100797.13
2023-03-21T21:59:18.081Z,100796.72
2023-03-21T22:04:08.473Z,100799.00
2023-03-21T22:06:32.365Z,100799.13
2023-03-21T22:08:56.944Z,100804.38
2023-03-21T22:11:22.150Z,100803.34
2023-03-21T22:13:46.807Z,100805.22
2023-03-21T22:16:11.641Z,100801.50
2023-03-21T22:18:38.627Z,100790.00
2023-03-21T22:21:04.149Z,100803.94
2023-03-21T22:23:28.080Z,100805.56
2023-03-21T22:25:52.713Z,100804.00
2023-03-21T22:28:18.029Z,100802.59
2023-03-21T22:30:41.973Z,100808.63
2023-03-21T22:33:09.561Z,100801.72
2023-03-21T22:35:33.955Z,100789.78
2023-03-21T22:37:57.698Z,100785.94
2023-03-21T22:40:21.699Z,100786.53
2023-03-21T22:42:45.710Z,100783.59
2023-03-21T22:45:13.796Z,100780.22
2023-03-21T22:47:37.863Z,100781.09
2023-03-21T22:50:01.618Z,100786.31
2023-03-21T22:52:25.554Z,100787.19
2023-03-21T22:54:49.873Z,100789.47
2023-03-21T22:57:14.279Z,100793.97
2023-03-21T22:59:38.063Z,100799.19
2023-03-21T23:02:03.166Z,100797.44
2023-03-21T23:04:28.062Z,100798.03
2023-03-21T23:06:52.067Z,100786.88
2023-03-21T23:09:16.146Z,100782.41
2023-03-21T23:11:40.467Z,100791.72
2023-03-21T23:14:08.049Z,100790.56
2023-03-21T23:18:59.016Z,100791.16
2023-03-21T23:21:23.960Z,100790.69
2023-03-21T23:23:49.874Z,100779.44
2023-03-21T23:26:13.963Z,100786.88
2023-03-21T23:28:38.031Z,100780.53
2023-03-21T23:31:01.927Z,100769.31
2023-03-21T23:33:25.790Z,100769.03
2023-03-21T23:35:51.235Z,100759.94
2023-03-21T23:38:15.074Z,100761.69
2023-03-21T23:40:40.792Z,100757.16
2023-03-21T23:43:04.886Z,100753.13
2023-03-21T23:45:28.640Z,100750.44
2023-03-21T23:47:52.465Z,100752.19
2023-03-21T23:50:16.226Z,100752.84
2023-03-21T23:52:42.226Z,100748.72
2023-03-21T23:55:06.787Z,100749.66
2023-03-21T23:57:30.639Z,100758.34
2023-03-21T23:59:56.281Z,100752.38
